sensor_id;sensor_type;location;lat;lon;timestamp;P1;durP1;ratioP1;P2;durP2;ratioP2
63975;SDS011;50167;47.958;21.780;2023-05-17T00:00:31;54.77;;;32.10;;
63975;SDS011;50167;47.958;21.780;2023-05-17T00:02:57;42.20;;;24.27;;
63975;SDS011;50167;47.958;21.780;2023-05-17T00:05:23;30.90;;;16.33;;
63975;SDS011;50167;47.958;21.780;2023-05-17T00:07:50;22.57;;;9.67;;
63975;SDS011;50167;47.958;21.780;2023-05-17T00:10:16;20.97;;;6.30;;
63975;SDS011;50167;47.958;21.780;2023-05-17T00:12:42;19.07;;;7.20;;
63975;SDS011;50167;47.958;21.780;2023-05-17T00:15:08;19.67;;;7.43;;
63975;SDS011;50167;47.958;21.780;2023-05-17T00:17:35;31.33;;;7.00;;
63975;SDS011;50167;47.958;21.780;2023-05-17T00:20:02;18.90;;;6.60;;
63975;SDS011;50167;47.958;21.780;2023-05-17T00:22:30;21.37;;;6.33;;
63975;SDS011;50167;47.958;21.780;2023-05-17T00:24:56;20.83;;;6.13;;
63975;SDS011;50167;47.958;21.780;2023-05-17T00:27:22;21.57;;;6.23;;
63975;SDS011;50167;47.958;21.780;2023-05-17T00:29:48;15.67;;;7.27;;
63975;SDS011;50167;47.958;21.780;2023-05-17T00:32:14;19.97;;;6.63;;
63975;SDS011;50167;47.958;21.780;2023-05-17T00:34:40;21.73;;;7.60;;
63975;SDS011;50167;47.958;21.780;2023-05-17T00:37:07;24.27;;;7.23;;
63975;SDS011;50167;47.958;21.780;2023-05-17T00:39:33;23.03;;;6.83;;
63975;SDS011;50167;47.958;21.780;2023-05-17T00:41:59;14.10;;;5.53;;
63975;SDS011;50167;47.958;21.780;2023-05-17T00:44:25;20.10;;;6.80;;
63975;SDS011;50167;47.958;21.780;2023-05-17T00:46:52;24.40;;;7.27;;
63975;SDS011;50167;47.958;21.780;2023-05-17T00:49:18;13.37;;;6.03;;
63975;SDS011;50167;47.958;21.780;2023-05-17T00:51:44;20.43;;;6.87;;
63975;SDS011;50167;47.958;21.780;2023-05-17T00:54:11;24.07;;;8.27;;
63975;SDS011;50167;47.958;21.780;2023-05-17T00:56:38;12.57;;;5.37;;
63975;SDS011;50167;47.958;21.780;2023-05-17T00:59:05;17.33;;;5.90;;
63975;SDS011;50167;47.958;21.780;2023-05-17T01:01:32;25.93;;;7.23;;
63975;SDS011;50167;47.958;21.780;2023-05-17T01:04:00;22.43;;;8.27;;
63975;SDS011;50167;47.958;21.780;2023-05-17T01:06:27;15.27;;;6.97;;
63975;SDS011;50167;47.958;21.780;2023-05-17T01:08:53;18.23;;;5.73;;
63975;SDS011;50167;47.958;21.780;2023-05-17T01:11:41;13.20;;;5.47;;
63975;SDS011;50167;47.958;21.780;2023-05-17T01:20:27;29.70;;;6.73;;
63975;SDS011;50167;47.958;21.780;2023-05-17T01:25:55;24.20;;;6.67;;
63975;SDS011;50167;47.958;21.780;2023-05-17T01:28:24;13.07;;;5.17;;
63975;SDS011;50167;47.958;21.780;2023-05-17T01:30:54;15.40;;;5.00;;
63975;SDS011;50167;47.958;21.780;2023-05-17T01:33:22;21.50;;;6.80;;
63975;SDS011;50167;47.958;21.780;2023-05-17T01:35:48;26.37;;;6.33;;
63975;SDS011;50167;47.958;21.780;2023-05-17T01:38:14;10.87;;;5.10;;
63975;SDS011;50167;47.958;21.780;2023-05-17T01:40:46;18.57;;;6.00;;
63975;SDS011;50167;47.958;21.780;2023-05-17T01:48:55;14.07;;;5.03;;
63975;SDS011;50167;47.958;21.780;2023-05-17T01:51:26;17.47;;;5.30;;
63975;SDS011;50167;47.958;21.780;2023-05-17T01:53:56;17.90;;;6.80;;
63975;SDS011;50167;47.958;21.780;2023-05-17T01:56:32;19.70;;;6.57;;
63975;SDS011;50167;47.958;21.780;2023-05-17T01:59:01;22.77;;;6.47;;
63975;SDS011;50167;47.958;21.780;2023-05-17T02:01:30;17.37;;;4.77;;
63975;SDS011;50167;47.958;21.780;2023-05-17T02:03:58;17.57;;;5.37;;
63975;SDS011;50167;47.958;21.780;2023-05-17T02:06:24;17.13;;;5.20;;
63975;SDS011;50167;47.958;21.780;2023-05-17T02:08:51;13.17;;;5.57;;
63975;SDS011;50167;47.958;21.780;2023-05-17T02:11:18;16.53;;;5.07;;
63975;SDS011;50167;47.958;21.780;2023-05-17T02:13:44;13.40;;;6.33;;
63975;SDS011;50167;47.958;21.780;2023-05-17T02:16:11;20.90;;;7.47;;
63975;SDS011;50167;47.958;21.780;2023-05-17T02:18:37;13.53;;;5.83;;
63975;SDS011;50167;47.958;21.780;2023-05-17T02:21:04;17.57;;;6.17;;
63975;SDS011;50167;47.958;21.780;2023-05-17T02:23:30;17.37;;;7.37;;
63975;SDS011;50167;47.958;21.780;2023-05-17T02:25:56;12.03;;;4.87;;
63975;SDS011;50167;47.958;21.780;2023-05-17T02:28:23;25.53;;;7.43;;
63975;SDS011;50167;47.958;21.780;2023-05-17T02:30:49;30.43;;;8.63;;
63975;SDS011;50167;47.958;21.780;2023-05-17T02:33:17;23.43;;;7.07;;
63975;SDS011;50167;47.958;21.780;2023-05-17T02:35:43;14.47;;;6.87;;
63975;SDS011;50167;47.958;21.780;2023-05-17T02:38:09;20.37;;;6.70;;
63975;SDS011;50167;47.958;21.780;2023-05-17T02:40:35;19.00;;;5.97;;
63975;SDS011;50167;47.958;21.780;2023-05-17T02:43:02;25.47;;;6.63;;
63975;SDS011;50167;47.958;21.780;2023-05-17T02:45:29;15.00;;;6.50;;
63975;SDS011;50167;47.958;21.780;2023-05-17T02:47:55;14.73;;;6.53;;
63975;SDS011;50167;47.958;21.780;2023-05-17T02:50:21;21.77;;;7.47;;
63975;SDS011;50167;47.958;21.780;2023-05-17T02:52:49;17.13;;;6.90;;
63975;SDS011;50167;47.958;21.780;2023-05-17T02:55:15;12.70;;;6.20;;
63975;SDS011;50167;47.958;21.780;2023-05-17T02:57:42;16.47;;;6.27;;
63975;SDS011;50167;47.958;21.780;2023-05-17T03:00:08;15.63;;;6.97;;
63975;SDS011;50167;47.958;21.780;2023-05-17T03:02:35;16.27;;;6.03;;
63975;SDS011;50167;47.958;21.780;2023-05-17T03:05:01;14.93;;;6.00;;
63975;SDS011;50167;47.958;21.780;2023-05-17T03:07:29;14.50;;;5.10;;
63975;SDS011;50167;47.958;21.780;2023-05-17T03:09:55;16.70;;;6.30;;
63975;SDS011;50167;47.958;21.780;2023-05-17T03:12:21;22.00;;;6.40;;
63975;SDS011;50167;47.958;21.780;2023-05-17T03:14:48;17.50;;;7.00;;
63975;SDS011;50167;47.958;21.780;2023-05-17T03:17:14;15.87;;;5.70;;
63975;SDS011;50167;47.958;21.780;2023-05-17T03:19:40;17.23;;;5.60;;
63975;SDS011;50167;47.958;21.780;2023-05-17T03:22:06;18.10;;;6.20;;
63975;SDS011;50167;47.958;21.780;2023-05-17T03:27:10;15.03;;;5.97;;
63975;SDS011;50167;47.958;21.780;2023-05-17T03:29:36;17.80;;;6.87;;
63975;SDS011;50167;47.958;21.780;2023-05-17T03:32:02;13.27;;;5.53;;
63975;SDS011;50167;47.958;21.780;2023-05-17T03:34:29;16.90;;;6.67;;
63975;SDS011;50167;47.958;21.780;2023-05-17T03:36:55;16.47;;;6.40;;
63975;SDS011;50167;47.958;21.780;2023-05-17T03:39:21;23.60;;;6.60;;
63975;SDS011;50167;47.958;21.780;2023-05-17T03:41:47;32.73;;;8.03;;
63975;SDS011;50167;47.958;21.780;2023-05-17T03:44:13;21.00;;;6.70;;
63975;SDS011;50167;47.958;21.780;2023-05-17T03:46:39;24.87;;;6.70;;
63975;SDS011;50167;47.958;21.780;2023-05-17T03:49:06;15.87;;;6.17;;
63975;SDS011;50167;47.958;21.780;2023-05-17T03:51:32;16.53;;;6.40;;
63975;SDS011;50167;47.958;21.780;2023-05-17T03:53:59;26.53;;;6.93;;
63975;SDS011;50167;47.958;21.780;2023-05-17T03:56:26;13.87;;;6.50;;
63975;SDS011;50167;47.958;21.780;2023-05-17T03:58:52;17.87;;;6.67;;
63975;SDS011;50167;47.958;21.780;2023-05-17T04:01:18;16.00;;;6.13;;
63975;SDS011;50167;47.958;21.780;2023-05-17T04:03:45;15.67;;;5.80;;
63975;SDS011;50167;47.958;21.780;2023-05-17T04:06:12;19.13;;;6.67;;
63975;SDS011;50167;47.958;21.780;2023-05-17T04:08:39;19.87;;;5.63;;
63975;SDS011;50167;47.958;21.780;2023-05-17T04:11:05;18.57;;;6.50;;
63975;SDS011;50167;47.958;21.780;2023-05-17T04:13:37;22.20;;;6.23;;
63975;SDS011;50167;47.958;21.780;2023-05-17T04:16:05;20.10;;;6.17;;
63975;SDS011;50167;47.958;21.780;2023-05-17T04:18:34;19.90;;;6.10;;
63975;SDS011;50167;47.958;21.780;2023-05-17T04:21:02;16.37;;;6.93;;
63975;SDS011;50167;47.958;21.780;2023-05-17T04:23:30;30.60;;;7.00;;
63975;SDS011;50167;47.958;21.780;2023-05-17T04:25:57;29.03;;;6.20;;
63975;SDS011;50167;47.958;21.780;2023-05-17T04:28:24;29.13;;;6.73;;
63975;SDS011;50167;47.958;21.780;2023-05-17T04:30:51;19.17;;;6.10;;
63975;SDS011;50167;47.958;21.780;2023-05-17T04:33:17;24.53;;;8.87;;
63975;SDS011;50167;47.958;21.780;2023-05-17T04:35:44;23.67;;;6.27;;
63975;SDS011;50167;47.958;21.780;2023-05-17T04:38:10;17.73;;;6.40;;
63975;SDS011;50167;47.958;21.780;2023-05-17T04:40:37;25.73;;;7.80;;
63975;SDS011;50167;47.958;21.780;2023-05-17T04:43:04;20.10;;;6.53;;
63975;SDS011;50167;47.958;21.780;2023-05-17T04:45:30;21.60;;;7.60;;
63975;SDS011;50167;47.958;21.780;2023-05-17T04:47:57;13.40;;;5.60;;
63975;SDS011;50167;47.958;21.780;2023-05-17T04:50:26;27.57;;;7.57;;
63975;SDS011;50167;47.958;21.780;2023-05-17T04:52:53;24.70;;;7.37;;
63975;SDS011;50167;47.958;21.780;2023-05-17T04:55:19;29.97;;;6.77;;
63975;SDS011;50167;47.958;21.780;2023-05-17T04:57:45;22.40;;;6.40;;
63975;SDS011;50167;47.958;21.780;2023-05-17T05:00:12;22.70;;;6.23;;
63975;SDS011;50167;47.958;21.780;2023-05-17T05:02:40;24.70;;;5.90;;
63975;SDS011;50167;47.958;21.780;2023-05-17T05:05:06;16.83;;;5.23;;
63975;SDS011;50167;47.958;21.780;2023-05-17T05:07:36;16.82;;;5.87;;
63975;SDS011;50167;47.958;21.780;2023-05-17T05:10:04;17.97;;;6.33;;
63975;SDS011;50167;47.958;21.780;2023-05-17T05:12:31;26.30;;;6.53;;
63975;SDS011;50167;47.958;21.780;2023-05-17T05:14:57;22.13;;;6.27;;
63975;SDS011;50167;47.958;21.780;2023-05-17T05:17:24;17.30;;;5.63;;
63975;SDS011;50167;47.958;21.780;2023-05-17T05:19:51;22.23;;;4.63;;
63975;SDS011;50167;47.958;21.780;2023-05-17T05:22:17;13.90;;;5.40;;
63975;SDS011;50167;47.958;21.780;2023-05-17T05:24:43;22.93;;;5.80;;
63975;SDS011;50167;47.958;21.780;2023-05-17T05:27:09;18.53;;;5.63;;
63975;SDS011;50167;47.958;21.780;2023-05-17T05:29:35;18.87;;;5.03;;
63975;SDS011;50167;47.958;21.780;2023-05-17T05:32:01;15.47;;;5.17;;
63975;SDS011;50167;47.958;21.780;2023-05-17T05:34:28;11.77;;;5.30;;
63975;SDS011;50167;47.958;21.780;2023-05-17T05:36:56;13.67;;;4.97;;
63975;SDS011;50167;47.958;21.780;2023-05-17T05:39:22;18.60;;;6.50;;
63975;SDS011;50167;47.958;21.780;2023-05-17T05:41:48;15.40;;;5.30;;
63975;SDS011;50167;47.958;21.780;2023-05-17T05:44:16;12.40;;;4.93;;
63975;SDS011;50167;47.958;21.780;2023-05-17T05:46:45;13.17;;;4.07;;
63975;SDS011;50167;47.958;21.780;2023-05-17T05:49:13;17.47;;;5.60;;
63975;SDS011;50167;47.958;21.780;2023-05-17T05:51:40;12.13;;;5.00;;
63975;SDS011;50167;47.958;21.780;2023-05-17T05:54:06;35.57;;;6.77;;
63975;SDS011;50167;47.958;21.780;2023-05-17T05:56:32;11.53;;;3.93;;
63975;SDS011;50167;47.958;21.780;2023-05-17T05:58:58;14.67;;;5.10;;
63975;SDS011;50167;47.958;21.780;2023-05-17T06:01:24;12.30;;;5.10;;
63975;SDS011;50167;47.958;21.780;2023-05-17T06:03:51;12.57;;;4.37;;
63975;SDS011;50167;47.958;21.780;2023-05-17T06:06:18;11.77;;;5.07;;
63975;SDS011;50167;47.958;21.780;2023-05-17T06:08:44;17.93;;;4.50;;
63975;SDS011;50167;47.958;21.780;2023-05-17T06:11:12;12.10;;;4.90;;
63975;SDS011;50167;47.958;21.780;2023-05-17T06:13:38;12.37;;;4.77;;
63975;SDS011;50167;47.958;21.780;2023-05-17T06:16:07;14.87;;;5.23;;
63975;SDS011;50167;47.958;21.780;2023-05-17T06:18:33;15.20;;;4.90;;
63975;SDS011;50167;47.958;21.780;2023-05-17T06:20:59;10.93;;;4.67;;
63975;SDS011;50167;47.958;21.780;2023-05-17T06:23:25;9.40;;;4.33;;
63975;SDS011;50167;47.958;21.780;2023-05-17T06:25:52;15.97;;;5.03;;
63975;SDS011;50167;47.958;21.780;2023-05-17T06:28:18;8.23;;;4.30;;
63975;SDS011;50167;47.958;21.780;2023-05-17T06:30:44;13.40;;;5.53;;
63975;SDS011;50167;47.958;21.780;2023-05-17T06:33:11;17.00;;;4.97;;
63975;SDS011;50167;47.958;21.780;2023-05-17T06:35:37;10.88;;;5.80;;
63975;SDS011;50167;47.958;21.780;2023-05-17T06:38:03;13.20;;;4.37;;
63975;SDS011;50167;47.958;21.780;2023-05-17T06:40:29;16.45;;;5.70;;
63975;SDS011;50167;47.958;21.780;2023-05-17T06:42:56;12.58;;;4.92;;
63975;SDS011;50167;47.958;21.780;2023-05-17T06:45:22;15.08;;;5.20;;
63975;SDS011;50167;47.958;21.780;2023-05-17T06:47:48;9.95;;;4.10;;
63975;SDS011;50167;47.958;21.780;2023-05-17T06:50:14;10.85;;;4.05;;
63975;SDS011;50167;47.958;21.780;2023-05-17T06:52:41;9.73;;;3.60;;
63975;SDS011;50167;47.958;21.780;2023-05-17T06:55:07;10.00;;;4.10;;
63975;SDS011;50167;47.958;21.780;2023-05-17T06:57:34;12.63;;;4.42;;
63975;SDS011;50167;47.958;21.780;2023-05-17T07:00:01;11.12;;;4.60;;
63975;SDS011;50167;47.958;21.780;2023-05-17T07:02:30;18.50;;;6.05;;
63975;SDS011;50167;47.958;21.780;2023-05-17T07:04:57;10.65;;;5.42;;
63975;SDS011;50167;47.958;21.780;2023-05-17T07:07:23;12.70;;;4.85;;
63975;SDS011;50167;47.958;21.780;2023-05-17T07:09:49;13.40;;;5.05;;
63975;SDS011;50167;47.958;21.780;2023-05-17T07:12:15;12.40;;;4.55;;
63975;SDS011;50167;47.958;21.780;2023-05-17T07:14:41;13.72;;;4.35;;
63975;SDS011;50167;47.958;21.780;2023-05-17T07:17:09;14.38;;;6.28;;
63975;SDS011;50167;47.958;21.780;2023-05-17T07:19:36;10.93;;;4.65;;
63975;SDS011;50167;47.958;21.780;2023-05-17T07:22:02;11.00;;;5.70;;
63975;SDS011;50167;47.958;21.780;2023-05-17T07:24:28;10.85;;;5.00;;
63975;SDS011;50167;47.958;21.780;2023-05-17T07:26:54;13.65;;;5.28;;
63975;SDS011;50167;47.958;21.780;2023-05-17T07:29:21;9.93;;;5.85;;
63975;SDS011;50167;47.958;21.780;2023-05-17T07:31:47;13.53;;;6.53;;
63975;SDS011;50167;47.958;21.780;2023-05-17T07:34:13;14.93;;;6.05;;
63975;SDS011;50167;47.958;21.780;2023-05-17T07:36:40;20.02;;;6.47;;
63975;SDS011;50167;47.958;21.780;2023-05-17T07:39:06;8.93;;;4.75;;
63975;SDS011;50167;47.958;21.780;2023-05-17T07:41:33;18.40;;;6.12;;
63975;SDS011;50167;47.958;21.780;2023-05-17T07:44:00;18.85;;;5.55;;
63975;SDS011;50167;47.958;21.780;2023-05-17T07:46:26;11.28;;;4.78;;
63975;SDS011;50167;47.958;21.780;2023-05-17T07:48:53;10.78;;;5.22;;
63975;SDS011;50167;47.958;21.780;2023-05-17T07:51:19;12.03;;;6.37;;
63975;SDS011;50167;47.958;21.780;2023-05-17T07:53:45;15.32;;;6.15;;
63975;SDS011;50167;47.958;21.780;2023-05-17T07:56:11;11.10;;;4.55;;
63975;SDS011;50167;47.958;21.780;2023-05-17T07:58:38;12.65;;;4.10;;
63975;SDS011;50167;47.958;21.780;2023-05-17T08:01:04;8.23;;;4.08;;
63975;SDS011;50167;47.958;21.780;2023-05-17T08:03:30;8.60;;;4.60;;
63975;SDS011;50167;47.958;21.780;2023-05-17T08:05:56;11.65;;;4.25;;
63975;SDS011;50167;47.958;21.780;2023-05-17T08:08:22;13.35;;;4.22;;
63975;SDS011;50167;47.958;21.780;2023-05-17T08:10:48;18.48;;;5.45;;
63975;SDS011;50167;47.958;21.780;2023-05-17T08:13:15;16.45;;;4.28;;
63975;SDS011;50167;47.958;21.780;2023-05-17T08:15:41;12.07;;;4.42;;
63975;SDS011;50167;47.958;21.780;2023-05-17T08:18:07;11.10;;;4.97;;
63975;SDS011;50167;47.958;21.780;2023-05-17T08:20:33;12.55;;;4.55;;
63975;SDS011;50167;47.958;21.780;2023-05-17T08:23:00;11.60;;;4.72;;
63975;SDS011;50167;47.958;21.780;2023-05-17T08:25:26;12.15;;;5.25;;
63975;SDS011;50167;47.958;21.780;2023-05-17T08:27:52;18.70;;;5.95;;
63975;SDS011;50167;47.958;21.780;2023-05-17T08:30:19;16.93;;;5.85;;
63975;SDS011;50167;47.958;21.780;2023-05-17T08:32:45;15.98;;;4.15;;
63975;SDS011;50167;47.958;21.780;2023-05-17T08:35:12;15.28;;;5.42;;
63975;SDS011;50167;47.958;21.780;2023-05-17T08:37:38;16.95;;;5.10;;
63975;SDS011;50167;47.958;21.780;2023-05-17T08:40:05;13.53;;;5.75;;
63975;SDS011;50167;47.958;21.780;2023-05-17T08:42:31;12.95;;;5.90;;
63975;SDS011;50167;47.958;21.780;2023-05-17T08:44:59;10.60;;;4.92;;
63975;SDS011;50167;47.958;21.780;2023-05-17T08:47:26;13.93;;;6.47;;
63975;SDS011;50167;47.958;21.780;2023-05-17T08:49:56;17.80;;;7.25;;
63975;SDS011;50167;47.958;21.780;2023-05-17T08:52:28;14.47;;;4.92;;
63975;SDS011;50167;47.958;21.780;2023-05-17T08:54:59;13.08;;;4.87;;
63975;SDS011;50167;47.958;21.780;2023-05-17T08:57:27;7.47;;;2.83;;
63975;SDS011;50167;47.958;21.780;2023-05-17T08:59:58;9.23;;;4.10;;
63975;SDS011;50167;47.958;21.780;2023-05-17T09:02:29;6.50;;;3.00;;
63975;SDS011;50167;47.958;21.780;2023-05-17T09:04:56;11.45;;;3.40;;
63975;SDS011;50167;47.958;21.780;2023-05-17T09:07:27;9.03;;;4.50;;
63975;SDS011;50167;47.958;21.780;2023-05-17T09:09:53;18.17;;;9.95;;
63975;SDS011;50167;47.958;21.780;2023-05-17T09:12:21;11.85;;;6.53;;
63975;SDS011;50167;47.958;21.780;2023-05-17T09:14:48;7.37;;;5.60;;
63975;SDS011;50167;47.958;21.780;2023-05-17T09:17:18;13.32;;;4.42;;
63975;SDS011;50167;47.958;21.780;2023-05-17T09:19:47;8.70;;;3.55;;
63975;SDS011;50167;47.958;21.780;2023-05-17T09:22:17;9.53;;;4.47;;
63975;SDS011;50167;47.958;21.780;2023-05-17T09:24:46;10.80;;;4.50;;
63975;SDS011;50167;47.958;21.780;2023-05-17T09:27:18;9.58;;;3.95;;
63975;SDS011;50167;47.958;21.780;2023-05-17T09:29:43;7.92;;;4.12;;
63975;SDS011;50167;47.958;21.780;2023-05-17T09:32:15;10.43;;;3.98;;
63975;SDS011;50167;47.958;21.780;2023-05-17T09:34:40;8.75;;;4.17;;
63975;SDS011;50167;47.958;21.780;2023-05-17T09:37:13;11.33;;;4.33;;
63975;SDS011;50167;47.958;21.780;2023-05-17T09:39:42;11.83;;;4.72;;
63975;SDS011;50167;47.958;21.780;2023-05-17T09:42:11;10.72;;;3.85;;
63975;SDS011;50167;47.958;21.780;2023-05-17T09:47:25;7.12;;;3.85;;
63975;SDS011;50167;47.958;21.780;2023-05-17T09:49:56;10.25;;;4.62;;
63975;SDS011;50167;47.958;21.780;2023-05-17T09:52:26;9.78;;;3.85;;
63975;SDS011;50167;47.958;21.780;2023-05-17T09:54:59;7.50;;;3.50;;
63975;SDS011;50167;47.958;21.780;2023-05-17T09:57:27;10.93;;;3.92;;
63975;SDS011;50167;47.958;21.780;2023-05-17T09:59:56;7.33;;;3.70;;
63975;SDS011;50167;47.958;21.780;2023-05-17T10:02:26;9.18;;;3.52;;
63975;SDS011;50167;47.958;21.780;2023-05-17T10:04:56;9.98;;;3.95;;
63975;SDS011;50167;47.958;21.780;2023-05-17T10:07:23;10.98;;;3.60;;
63975;SDS011;50167;47.958;21.780;2023-05-17T10:09:52;9.68;;;3.35;;
63975;SDS011;50167;47.958;21.780;2023-05-17T10:12:21;7.85;;;4.42;;
63975;SDS011;50167;47.958;21.780;2023-05-17T10:14:47;10.38;;;3.75;;
63975;SDS011;50167;47.958;21.780;2023-05-17T10:17:19;11.35;;;3.72;;
63975;SDS011;50167;47.958;21.780;2023-05-17T10:19:46;14.78;;;4.20;;
63975;SDS011;50167;47.958;21.780;2023-05-17T10:22:14;11.33;;;4.17;;
63975;SDS011;50167;47.958;21.780;2023-05-17T10:24:42;14.47;;;5.12;;
63975;SDS011;50167;47.958;21.780;2023-05-17T10:27:09;8.43;;;4.17;;
63975;SDS011;50167;47.958;21.780;2023-05-17T10:29:37;7.25;;;3.22;;
63975;SDS011;50167;47.958;21.780;2023-05-17T10:32:05;11.97;;;3.52;;
63975;SDS011;50167;47.958;21.780;2023-05-17T10:34:33;7.03;;;3.52;;
63975;SDS011;50167;47.958;21.780;2023-05-17T10:37:01;10.40;;;3.02;;
63975;SDS011;50167;47.958;21.780;2023-05-17T10:39:28;6.03;;;3.30;;
63975;SDS011;50167;47.958;21.780;2023-05-17T10:42:02;6.90;;;2.37;;
63975;SDS011;50167;47.958;21.780;2023-05-17T10:44:32;6.62;;;2.65;;
63975;SDS011;50167;47.958;21.780;2023-05-17T10:47:02;8.97;;;2.73;;
63975;SDS011;50167;47.958;21.780;2023-05-17T10:49:29;9.85;;;2.85;;
63975;SDS011;50167;47.958;21.780;2023-05-17T10:52:10;9.20;;;3.45;;
63975;SDS011;50167;47.958;21.780;2023-05-17T10:54:43;6.42;;;2.45;;
63975;SDS011;50167;47.958;21.780;2023-05-17T10:57:17;6.37;;;2.83;;
63975;SDS011;50167;47.958;21.780;2023-05-17T11:00:00;6.62;;;2.90;;
63975;SDS011;50167;47.958;21.780;2023-05-17T11:02:30;9.80;;;3.35;;
63975;SDS011;50167;47.958;21.780;2023-05-17T11:04:57;7.30;;;3.65;;
63975;SDS011;50167;47.958;21.780;2023-05-17T11:07:29;9.20;;;3.15;;
63975;SDS011;50167;47.958;21.780;2023-05-17T11:15:12;9.65;;;3.50;;
63975;SDS011;50167;47.958;21.780;2023-05-17T11:23:03;13.53;;;3.92;;
63975;SDS011;50167;47.958;21.780;2023-05-17T11:25:35;11.20;;;3.37;;
63975;SDS011;50167;47.958;21.780;2023-05-17T11:28:07;11.50;;;3.85;;
63975;SDS011;50167;47.958;21.780;2023-05-17T11:30:46;9.50;;;3.12;;
63975;SDS011;50167;47.958;21.780;2023-05-17T11:33:18;8.98;;;2.72;;
63975;SDS011;50167;47.958;21.780;2023-05-17T11:35:46;5.78;;;2.62;;
63975;SDS011;50167;47.958;21.780;2023-05-17T11:38:16;9.85;;;3.42;;
63975;SDS011;50167;47.958;21.780;2023-05-17T11:40:46;9.10;;;3.05;;
63975;SDS011;50167;47.958;21.780;2023-05-17T11:43:19;5.97;;;3.10;;
63975;SDS011;50167;47.958;21.780;2023-05-17T11:45:49;11.83;;;3.15;;
63975;SDS011;50167;47.958;21.780;2023-05-17T11:48:28;11.20;;;4.22;;
63975;SDS011;50167;47.958;21.780;2023-05-17T11:50:55;8.43;;;3.30;;
63975;SDS011;50167;47.958;21.780;2023-05-17T11:53:23;8.20;;;3.67;;
63975;SDS011;50167;47.958;21.780;2023-05-17T11:55:53;5.72;;;3.47;;
63975;SDS011;50167;47.958;21.780;2023-05-17T11:58:23;10.93;;;4.62;;
63975;SDS011;50167;47.958;21.780;2023-05-17T12:00:52;15.63;;;4.03;;
63975;SDS011;50167;47.958;21.780;2023-05-17T12:03:21;11.68;;;4.50;;
63975;SDS011;50167;47.958;21.780;2023-05-17T12:05:50;9.15;;;3.55;;
63975;SDS011;50167;47.958;21.780;2023-05-17T12:08:27;9.98;;;2.87;;
63975;SDS011;50167;47.958;21.780;2023-05-17T12:10:53;9.13;;;3.25;;
63975;SDS011;50167;47.958;21.780;2023-05-17T12:13:21;10.38;;;3.58;;
63975;SDS011;50167;47.958;21.780;2023-05-17T12:15:50;8.50;;;3.05;;
63975;SDS011;50167;47.958;21.780;2023-05-17T12:18:22;8.23;;;3.10;;
63975;SDS011;50167;47.958;21.780;2023-05-17T12:20:54;10.65;;;3.10;;
63975;SDS011;50167;47.958;21.780;2023-05-17T12:23:26;11.05;;;2.75;;
63975;SDS011;50167;47.958;21.780;2023-05-17T12:28:53;12.25;;;3.77;;
63975;SDS011;50167;47.958;21.780;2023-05-17T12:31:27;8.33;;;3.33;;
63975;SDS011;50167;47.958;21.780;2023-05-17T12:33:59;11.90;;;3.87;;
63975;SDS011;50167;47.958;21.780;2023-05-17T12:36:28;12.73;;;3.70;;
63975;SDS011;50167;47.958;21.780;2023-05-17T12:38:56;7.42;;;3.15;;
63975;SDS011;50167;47.958;21.780;2023-05-17T12:41:22;14.43;;;3.55;;
63975;SDS011;50167;47.958;21.780;2023-05-17T12:43:53;13.53;;;2.87;;
63975;SDS011;50167;47.958;21.780;2023-05-17T12:46:21;7.95;;;3.20;;
63975;SDS011;50167;47.958;21.780;2023-05-17T12:48:49;8.28;;;2.75;;
63975;SDS011;50167;47.958;21.780;2023-05-17T12:51:17;8.45;;;2.80;;
63975;SDS011;50167;47.958;21.780;2023-05-17T12:53:55;12.43;;;3.60;;
63975;SDS011;50167;47.958;21.780;2023-05-17T12:56:28;8.73;;;4.35;;
63975;SDS011;50167;47.958;21.780;2023-05-17T13:01:42;10.85;;;3.87;;
63975;SDS011;50167;47.958;21.780;2023-05-17T13:04:16;9.95;;;3.10;;
63975;SDS011;50167;47.958;21.780;2023-05-17T13:06:55;11.38;;;3.08;;
63975;SDS011;50167;47.958;21.780;2023-05-17T13:09:25;12.43;;;3.45;;
63975;SDS011;50167;47.958;21.780;2023-05-17T13:14:36;10.35;;;3.22;;
63975;SDS011;50167;47.958;21.780;2023-05-17T13:17:13;9.18;;;2.62;;
63975;SDS011;50167;47.958;21.780;2023-05-17T13:19:48;7.08;;;2.98;;
63975;SDS011;50167;47.958;21.780;2023-05-17T13:22:16;8.93;;;3.40;;
63975;SDS011;50167;47.958;21.780;2023-05-17T13:24:43;7.97;;;2.85;;
63975;SDS011;50167;47.958;21.780;2023-05-17T13:27:10;11.30;;;3.70;;
63975;SDS011;50167;47.958;21.780;2023-05-17T13:29:38;14.93;;;3.22;;
63975;SDS011;50167;47.958;21.780;2023-05-17T13:32:06;16.62;;;5.17;;
63975;SDS011;50167;47.958;21.780;2023-05-17T13:34:35;8.40;;;3.23;;
63975;SDS011;50167;47.958;21.780;2023-05-17T13:37:02;8.88;;;2.85;;
63975;SDS011;50167;47.958;21.780;2023-05-17T13:39:30;8.58;;;2.85;;
63975;SDS011;50167;47.958;21.780;2023-05-17T13:41:56;8.40;;;2.50;;
63975;SDS011;50167;47.958;21.780;2023-05-17T13:44:23;14.58;;;3.33;;
63975;SDS011;50167;47.958;21.780;2023-05-17T13:46:50;8.13;;;2.80;;
63975;SDS011;50167;47.958;21.780;2023-05-17T13:49:16;10.70;;;3.02;;
63975;SDS011;50167;47.958;21.780;2023-05-17T13:51:43;9.25;;;2.80;;
63975;SDS011;50167;47.958;21.780;2023-05-17T13:58:01;10.13;;;3.33;;
63975;SDS011;50167;47.958;21.780;2023-05-17T14:00:27;14.38;;;3.35;;
63975;SDS011;50167;47.958;21.780;2023-05-17T14:02:53;12.47;;;3.42;;
63975;SDS011;50167;47.958;21.780;2023-05-17T14:05:19;10.23;;;2.98;;
63975;SDS011;50167;47.958;21.780;2023-05-17T14:07:45;13.18;;;3.52;;
63975;SDS011;50167;47.958;21.780;2023-05-17T14:10:12;8.08;;;3.45;;
63975;SDS011;50167;47.958;21.780;2023-05-17T14:12:38;8.33;;;3.40;;
63975;SDS011;50167;47.958;21.780;2023-05-17T14:15:05;13.83;;;3.40;;
63975;SDS011;50167;47.958;21.780;2023-05-17T14:17:33;9.18;;;4.37;;
63975;SDS011;50167;47.958;21.780;2023-05-17T14:19:59;10.60;;;3.15;;
63975;SDS011;50167;47.958;21.780;2023-05-17T14:22:25;8.55;;;4.05;;
63975;SDS011;50167;47.958;21.780;2023-05-17T14:24:51;14.03;;;3.75;;
63975;SDS011;50167;47.958;21.780;2023-05-17T14:27:19;8.63;;;3.33;;
63975;SDS011;50167;47.958;21.780;2023-05-17T14:29:45;14.03;;;3.25;;
63975;SDS011;50167;47.958;21.780;2023-05-17T14:32:11;8.70;;;2.90;;
63975;SDS011;50167;47.958;21.780;2023-05-17T14:34:38;10.72;;;3.58;;
63975;SDS011;50167;47.958;21.780;2023-05-17T14:37:05;9.83;;;3.92;;
63975;SDS011;50167;47.958;21.780;2023-05-17T14:39:31;12.98;;;3.80;;
63975;SDS011;50167;47.958;21.780;2023-05-17T14:41:57;16.62;;;3.45;;
63975;SDS011;50167;47.958;21.780;2023-05-17T14:44:24;12.88;;;3.95;;
63975;SDS011;50167;47.958;21.780;2023-05-17T14:46:51;13.22;;;3.65;;
63975;SDS011;50167;47.958;21.780;2023-05-17T14:49:17;9.30;;;3.85;;
63975;SDS011;50167;47.958;21.780;2023-05-17T14:51:43;11.85;;;3.52;;
63975;SDS011;50167;47.958;21.780;2023-05-17T14:54:10;9.28;;;3.00;;
63975;SDS011;50167;47.958;21.780;2023-05-17T14:56:36;10.10;;;3.10;;
63975;SDS011;50167;47.958;21.780;2023-05-17T14:59:03;7.90;;;2.77;;
63975;SDS011;50167;47.958;21.780;2023-05-17T15:01:31;14.30;;;4.53;;
63975;SDS011;50167;47.958;21.780;2023-05-17T15:03:57;7.03;;;3.05;;
63975;SDS011;50167;47.958;21.780;2023-05-17T15:06:23;12.58;;;3.05;;
63975;SDS011;50167;47.958;21.780;2023-05-17T15:08:51;10.15;;;3.92;;